Terminal Aerodrome Forecast
Issued by NWS

Home | Current Version | Previous Version | Text Only | Print | Product List | Glossary On
Versions: 1 2 3 4 5 6 7 8 9 10 11 12 13 14 15
000
FTUS46 KOTX 010525
TAFSFF
TAF
KSFF 010525Z 0106/0206 24006KT P6SM BKN080
     FM010900 33003KT P6SM SKC
     FM011500 20005KT P6SM OVC100
     FM012000 21007G14KT P6SM BKN045 OVC080 PROB30 0121/0202 -RA
     FM020300 12003KT P6SM SCT045 OVC080=

USA.gov is the U.S. government's official web portal to all federal, state and local government web resources and services.